Time;durP1;ratioP1;P1;durP2;ratioP2;P2;SDS_P1;SDS_P2;PMS_P1;PMS_P2;Temp;Humidity;BMP_temperature;BMP_pressure;BME280_temperature;BME280_humidity;BME280_pressure;Samples;Min_cycle;Max_cycle;Signal;HPM_P1;HPM_P2
2022/05/05 00:00:44;;;;;;;14.32;4.72;;;10.20;99.90;;;;;;5032623;28;20056;-51
2022/05/05 00:03:09;;;;;;;13.02;4.30;;;10.20;99.90;;;;;;5033146;28;21538;-51
2022/05/05 00:05:35;;;;;;;9.10;4.40;;;10.10;99.90;;;;;;5034265;28;20656;-51
2022/05/05 00:08:01;;;;;;;10.93;4.70;;;10.00;99.90;;;;;;5032766;28;20036;-47
2022/05/05 00:15:55;;;;;;;12.20;4.93;;;10.00;99.90;;;;;;5032690;28;20446;-50
2022/05/05 00:18:20;;;;;;;14.35;4.13;;;9.80;99.90;;;;;;5032699;28;20073;-50
2022/05/05 00:20:46;;;;;;;9.07;4.05;;;9.90;99.90;;;;;;5032501;28;20392;-49
2022/05/05 00:23:12;;;;;;;11.80;4.75;;;9.80;99.90;;;;;;5033857;28;20500;-49
2022/05/05 00:25:37;;;;;;;14.68;4.38;;;9.90;99.90;;;;;;5032419;28;20048;-48
2022/05/05 00:28:03;;;;;;;10.35;4.72;;;9.90;99.90;;;;;;5034331;28;20034;-49
2022/05/05 00:30:29;;;;;;;10.77;4.50;;;9.70;99.90;;;;;;5032017;28;20047;-48
2022/05/05 00:32:54;;;;;;;12.30;4.10;;;9.70;99.90;;;;;;5032523;28;20370;-51
2022/05/05 00:35:20;;;;;;;11.02;4.85;;;9.60;99.90;;;;;;5032245;28;20124;-48
2022/05/05 00:37:46;;;;;;;15.63;4.70;;;9.60;99.90;;;;;;5032650;28;20045;-49
2022/05/05 00:40:12;;;;;;;8.63;4.28;;;9.60;99.90;;;;;;5032437;28;20038;-52
2022/05/05 00:42:38;;;;;;;12.18;4.50;;;9.50;99.90;;;;;;5034483;28;20053;-47
2022/05/05 00:45:04;;;;;;;10.25;4.57;;;9.40;99.90;;;;;;5032693;28;20041;-49
2022/05/05 00:47:30;;;;;;;11.23;4.50;;;9.30;99.90;;;;;;5031967;28;20068;-50
2022/05/05 00:49:59;;;;;;;11.20;4.90;;;9.30;99.90;;;;;;5031887;28;20476;-50
2022/05/05 00:52:26;;;;;;;11.35;4.47;;;9.20;99.90;;;;;;5032720;28;20520;-48
2022/05/05 00:54:52;;;;;;;11.15;5.03;;;9.20;99.90;;;;;;5033230;28;20087;-48
2022/05/05 00:57:18;;;;;;;9.43;4.90;;;9.20;99.90;;;;;;5032535;28;20056;-46
2022/05/05 00:59:44;;;;;;;9.65;4.80;;;9.30;99.90;;;;;;5031593;28;20057;-50
2022/05/05 01:02:11;;;;;;;10.40;4.70;;;9.20;99.90;;;;;;5032747;28;20172;-49
2022/05/05 01:04:37;;;;;;;10.65;5.05;;;9.10;99.90;;;;;;5047609;28;20109;-48
2022/05/05 01:07:04;;;;;;;15.68;5.32;;;9.10;99.90;;;;;;5051483;28;20088;-51
2022/05/05 01:09:29;;;;;;;9.15;4.95;;;9.20;99.90;;;;;;5035323;28;20041;-48
2022/05/05 01:11:55;;;;;;;10.23;4.55;;;9.10;99.90;;;;;;5031671;28;20029;-48
2022/05/05 01:14:21;;;;;;;10.50;4.90;;;9.00;99.90;;;;;;5032337;28;20034;-49
2022/05/05 01:16:47;;;;;;;9.57;5.03;;;9.10;99.90;;;;;;5033075;28;20034;-46
2022/05/05 01:19:12;;;;;;;13.90;5.13;;;9.00;99.90;;;;;;5032482;28;20036;-51
2022/05/05 01:21:38;;;;;;;12.85;5.03;;;9.00;99.90;;;;;;5032578;28;20052;-47
2022/05/05 01:24:04;;;;;;;10.15;4.40;;;9.00;99.90;;;;;;5031138;28;20048;-49
2022/05/05 01:29:15;;;;;;;12.05;5.50;;;8.80;99.90;;;;;;5031699;28;20558;-52
2022/05/05 01:31:44;;;;;;;12.77;5.25;;;8.90;99.90;;;;;;5031083;28;20048;-50
2022/05/05 01:34:10;;;;;;;14.02;5.70;;;8.80;99.90;;;;;;5031570;28;20069;-50
2022/05/05 01:36:35;;;;;;;10.55;4.75;;;8.80;99.90;;;;;;5031503;28;20033;-51
2022/05/05 01:39:01;;;;;;;12.93;5.53;;;8.80;99.90;;;;;;5031312;28;20527;-50
2022/05/05 01:41:27;;;;;;;12.48;5.30;;;8.80;99.90;;;;;;5031539;28;20049;-49
2022/05/05 01:43:52;;;;;;;13.10;5.38;;;8.80;99.90;;;;;;5032915;28;20065;-47
2022/05/05 01:46:18;;;;;;;13.32;5.20;;;8.80;99.90;;;;;;5031388;28;20049;-48
2022/05/05 01:48:44;;;;;;;12.40;5.28;;;8.80;99.90;;;;;;5046542;28;20040;-50
2022/05/05 01:51:09;;;;;;;13.32;5.60;;;8.70;99.90;;;;;;5031160;28;20057;-48
2022/05/05 01:53:38;;;;;;;17.88;5.85;;;8.70;99.90;;;;;;5031031;28;20083;-49
2022/05/05 01:56:12;;;;;;;11.68;5.63;;;8.70;99.90;;;;;;5029946;28;20049;-47
2022/05/05 01:58:40;;;;;;;9.63;5.55;;;8.60;99.90;;;;;;5029868;28;20053;-49
2022/05/05 02:01:09;;;;;;;10.13;5.72;;;8.60;99.90;;;;;;5030747;28;20084;-51
2022/05/05 02:03:35;;;;;;;11.52;5.95;;;8.50;99.90;;;;;;5049815;28;20036;-49
2022/05/05 02:06:00;;;;;;;14.82;6.07;;;8.50;99.90;;;;;;5051085;28;20124;-49
2022/05/05 02:08:26;;;;;;;15.95;6.20;;;8.40;99.90;;;;;;5051029;28;20037;-47
2022/05/05 02:10:52;;;;;;;14.10;5.72;;;8.40;99.90;;;;;;5050856;28;20443;-50
2022/05/05 02:13:19;;;;;;;12.02;5.85;;;8.40;99.90;;;;;;5050758;28;20037;-47
2022/05/05 02:15:44;;;;;;;11.23;5.47;;;8.40;99.90;;;;;;5050962;28;20079;-49
2022/05/05 02:18:11;;;;;;;11.23;5.90;;;8.30;99.90;;;;;;5051051;28;20073;-49
2022/05/05 02:20:38;;;;;;;11.63;6.38;;;8.30;99.90;;;;;;5050748;28;20092;-49
2022/05/05 02:23:05;;;;;;;11.13;5.80;;;8.20;99.90;;;;;;5050678;28;20056;-51
2022/05/05 02:25:31;;;;;;;16.08;5.95;;;8.10;99.90;;;;;;5050920;28;20082;-51
2022/05/05 02:27:56;;;;;;;11.95;5.78;;;8.10;99.90;;;;;;5050939;28;20029;-48
2022/05/05 02:30:24;;;;;;;14.43;6.03;;;8.00;99.90;;;;;;5050449;28;20056;-48
2022/05/05 02:32:50;;;;;;;15.43;6.10;;;8.00;99.90;;;;;;5050573;28;20086;-50
2022/05/05 02:35:18;;;;;;;12.82;6.13;;;8.00;99.90;;;;;;5051559;28;20041;-50
2022/05/05 02:40:28;;;;;;;;;;;8.00;99.90;;;;;;5055090;28;20124;-48
2022/05/05 02:42:58;;;;;;;13.13;6.10;;;7.90;99.90;;;;;;5054465;28;20309;-48
2022/05/05 02:45:24;;;;;;;15.93;6.55;;;7.80;99.90;;;;;;5054303;28;20444;-50
2022/05/05 02:47:50;;;;;;;13.98;6.00;;;7.80;99.90;;;;;;5054299;28;20102;-51
2022/05/05 02:50:17;;;;;;;13.52;6.25;;;7.80;99.90;;;;;;5052499;28;20096;-46
2022/05/05 02:52:43;;;;;;;15.15;6.45;;;7.70;99.90;;;;;;5054368;28;20032;-50
2022/05/05 02:55:08;;;;;;;12.57;6.13;;;7.70;99.90;;;;;;5050358;28;20057;-51
2022/05/05 02:57:34;;;;;;;13.93;6.53;;;7.60;99.90;;;;;;5034170;28;20045;-50
2022/05/05 03:00:01;;;;;;;13.48;6.03;;;7.50;99.90;;;;;;5035286;28;20053;-51
2022/05/05 03:02:26;;;;;;;13.77;6.50;;;7.50;99.90;;;;;;5034452;28;20393;-49
2022/05/05 03:04:52;;;;;;;12.27;6.38;;;7.40;99.90;;;;;;5035308;28;20056;-46
2022/05/05 03:07:18;;;;;;;16.35;7.18;;;7.40;99.90;;;;;;5034099;28;20037;-51
2022/05/05 03:09:44;;;;;;;12.75;6.82;;;7.40;99.90;;;;;;5049380;28;20046;-52
2022/05/05 03:12:10;;;;;;;12.35;6.95;;;7.50;99.90;;;;;;5035365;28;20108;-51
2022/05/05 03:14:37;;;;;;;12.38;7.40;;;7.40;99.90;;;;;;5034051;28;20037;-49
2022/05/05 03:17:03;;;;;;;13.38;7.65;;;7.40;99.90;;;;;;5052495;28;20057;-50
2022/05/05 03:19:29;;;;;;;14.90;6.95;;;7.40;99.90;;;;;;5053973;28;20045;-48
2022/05/05 03:21:55;;;;;;;14.73;7.72;;;7.30;99.90;;;;;;5053758;28;20373;-47
2022/05/05 03:24:20;;;;;;;17.45;6.95;;;7.30;99.90;;;;;;5053371;28;20480;-50
2022/05/05 03:26:46;;;;;;;14.43;6.80;;;7.30;99.90;;;;;;5053447;28;20044;-49
2022/05/05 03:29:12;;;;;;;14.00;7.35;;;7.30;99.90;;;;;;5053670;28;20053;-49
2022/05/05 03:31:39;;;;;;;18.75;7.65;;;7.30;99.90;;;;;;5053265;28;20098;-48
2022/05/05 03:34:05;;;;;;;19.50;7.15;;;7.30;99.90;;;;;;5053224;28;20033;-49
2022/05/05 03:36:31;;;;;;;13.80;7.55;;;7.20;99.90;;;;;;5053611;28;20032;-51
2022/05/05 03:38:56;;;;;;;15.07;7.90;;;7.20;99.90;;;;;;5053336;28;20098;-51
2022/05/05 03:41:23;;;;;;;15.23;7.32;;;7.20;99.90;;;;;;5053091;28;20536;-46
2022/05/05 03:43:49;;;;;;;14.43;8.00;;;7.10;99.90;;;;;;5053398;28;20118;-51
2022/05/05 03:46:14;;;;;;;11.13;8.05;;;7.10;99.90;;;;;;5052534;28;20037;-49
2022/05/05 03:48:40;;;;;;;17.88;7.80;;;7.00;99.90;;;;;;5053130;28;20033;-47
2022/05/05 03:51:06;;;;;;;16.25;8.20;;;7.00;99.90;;;;;;5052869;28;20053;-48
2022/05/05 03:53:33;;;;;;;13.30;7.60;;;7.00;99.90;;;;;;5053077;28;20045;-50
2022/05/05 03:55:59;;;;;;;15.25;7.82;;;6.90;99.90;;;;;;5053111;28;20076;-51
2022/05/05 03:58:28;;;;;;;18.90;8.90;;;6.80;99.90;;;;;;5052819;28;21590;-48
2022/05/05 04:00:54;;;;;;;16.77;8.00;;;6.90;99.90;;;;;;5052138;28;20045;-49
2022/05/05 04:03:31;;;;;;;16.10;7.90;;;6.90;99.90;;;;;;5052930;28;20044;-51
2022/05/05 04:06:04;;;;;;;17.42;8.30;;;6.90;99.90;;;;;;5052635;28;20041;-48
2022/05/05 04:08:30;;;;;;;18.27;8.50;;;6.90;99.90;;;;;;5052763;28;20080;-48
2022/05/05 04:10:57;;;;;;;16.23;8.32;;;6.90;99.90;;;;;;5051653;28;20468;-48
2022/05/05 04:13:25;;;;;;;14.15;8.70;;;6.90;99.90;;;;;;5052901;28;20029;-47
2022/05/05 04:15:51;;;;;;;19.83;9.10;;;6.80;99.90;;;;;;5052760;28;20080;-48
2022/05/05 04:18:17;;;;;;;17.17;8.18;;;6.80;99.90;;;;;;5052846;28;20056;-52
2022/05/05 04:20:43;;;;;;;14.32;9.13;;;6.80;99.90;;;;;;5052621;28;20439;-52
2022/05/05 04:23:10;;;;;;;16.67;8.43;;;6.80;99.90;;;;;;5052605;28;20040;-48
2022/05/05 04:25:40;;;;;;;15.18;8.40;;;6.70;99.90;;;;;;5052342;28;20120;-49
2022/05/05 04:28:07;;;;;;;15.63;8.18;;;6.80;99.90;;;;;;5052538;28;20028;-49
2022/05/05 04:30:33;;;;;;;18.13;9.25;;;6.80;99.90;;;;;;5052050;28;20517;-51
2022/05/05 04:32:59;;;;;;;15.82;8.65;;;6.80;99.90;;;;;;5052287;28;20121;-51
2022/05/05 04:35:25;;;;;;;18.00;9.00;;;6.70;99.90;;;;;;5052448;28;20051;-48
2022/05/05 04:37:50;;;;;;;13.63;9.60;;;6.80;99.90;;;;;;5052348;28;20037;-49
2022/05/05 04:40:16;;;;;;;14.95;9.63;;;6.90;99.90;;;;;;5052281;28;20043;-50
2022/05/05 04:42:42;;;;;;;16.02;9.30;;;6.90;99.90;;;;;;5050303;28;20041;-50
2022/05/05 04:45:08;;;;;;;15.85;9.02;;;6.90;99.90;;;;;;5052086;28;20037;-49
2022/05/05 04:47:34;;;;;;;19.63;9.27;;;6.90;99.90;;;;;;5051912;28;20041;-48
2022/05/05 04:50:00;;;;;;;14.63;8.27;;;6.90;99.90;;;;;;5051659;28;20105;-50
2022/05/05 04:52:25;;;;;;;15.07;9.55;;;6.80;99.90;;;;;;5037841;28;20116;-48
2022/05/05 04:54:51;;;;;;;17.02;10.00;;;6.90;99.90;;;;;;5032121;28;20117;-49
2022/05/05 04:57:17;;;;;;;19.20;9.13;;;6.90;99.90;;;;;;5031326;28;20124;-50
2022/05/05 04:59:43;;;;;;;18.05;10.20;;;7.00;99.90;;;;;;5031587;28;20048;-47
2022/05/05 05:02:09;;;;;;;16.20;10.63;;;7.10;99.90;;;;;;5031495;28;20053;-50
2022/05/05 05:04:34;;;;;;;16.10;10.57;;;7.10;99.90;;;;;;5031657;28;20480;-52
2022/05/05 05:07:00;;;;;;;17.90;10.55;;;7.00;99.90;;;;;;5032003;28;20413;-52
2022/05/05 05:09:26;;;;;;;17.75;10.10;;;6.90;99.90;;;;;;5031611;28;20044;-49
2022/05/05 05:11:51;;;;;;;17.23;10.20;;;6.80;99.90;;;;;;5032432;28;20029;-48
2022/05/05 05:14:17;;;;;;;19.10;11.15;;;6.80;99.90;;;;;;5051714;28;20155;-48
2022/05/05 05:16:43;;;;;;;15.63;9.75;;;6.80;99.90;;;;;;5051610;28;20029;-51
2022/05/05 05:19:09;;;;;;;18.10;10.75;;;6.80;99.90;;;;;;5051370;28;20072;-47
2022/05/05 05:21:34;;;;;;;18.15;10.73;;;6.90;99.90;;;;;;5051764;28;20669;-51
2022/05/05 05:24:02;;;;;;;17.35;10.70;;;7.00;99.90;;;;;;5051521;28;20073;-47
2022/05/05 05:26:28;;;;;;;15.98;9.98;;;6.90;99.90;;;;;;5050242;28;20445;-49
2022/05/05 05:28:53;;;;;;;16.13;11.38;;;7.10;99.90;;;;;;5051499;28;20090;-47
2022/05/05 05:31:21;;;;;;;18.92;11.60;;;7.10;99.90;;;;;;5051021;28;20503;-49
2022/05/05 05:33:47;;;;;;;19.70;11.40;;;7.30;99.90;;;;;;5051455;28;20041;-48
2022/05/05 05:36:13;;;;;;;16.40;10.13;;;7.40;99.90;;;;;;5051457;28;20504;-50
2022/05/05 05:38:39;;;;;;;17.02;11.00;;;7.50;99.90;;;;;;5051212;28;20037;-48
2022/05/05 05:41:05;;;;;;;19.42;11.75;;;7.60;99.90;;;;;;5039447;28;20041;-50
2022/05/05 05:43:30;;;;;;;19.00;11.13;;;7.60;99.90;;;;;;5040327;28;20037;-48
2022/05/05 05:45:56;;;;;;;21.70;11.73;;;7.70;99.90;;;;;;5039583;28;20091;-47
2022/05/05 05:48:22;;;;;;;18.35;11.75;;;7.80;99.90;;;;;;5051346;28;20033;-50
2022/05/05 05:50:47;;;;;;;22.80;11.77;;;7.90;99.90;;;;;;5050875;28;20354;-47
2022/05/05 05:53:13;;;;;;;18.50;11.45;;;7.90;99.90;;;;;;5047535;28;20409;-52
2022/05/05 05:55:39;;;;;;;19.33;11.73;;;8.00;99.90;;;;;;5037110;28;20408;-48
2022/05/05 05:58:04;;;;;;;17.95;11.27;;;8.20;99.90;;;;;;5045348;28;20552;-47
2022/05/05 06:00:32;;;;;;;23.42;12.35;;;8.30;99.90;;;;;;5050533;28;20099;-47
2022/05/05 06:05:42;;;;;;;20.63;13.30;;;8.60;99.90;;;;;;5039971;28;20051;-49
2022/05/05 06:08:08;;;;;;;18.13;12.15;;;8.70;99.90;;;;;;5038809;28;20424;-47
2022/05/05 06:10:36;;;;;;;20.65;11.35;;;8.90;99.90;;;;;;5037390;28;20034;-48
2022/05/05 06:13:03;;;;;;;21.25;12.00;;;9.10;99.90;;;;;;5035045;28;20077;-47
2022/05/05 06:15:28;;;;;;;21.58;13.40;;;9.20;99.90;;;;;;5034647;28;20035;-51
2022/05/05 06:17:54;;;;;;;19.52;12.13;;;9.40;99.90;;;;;;5034983;28;20033;-49
2022/05/05 06:20:20;;;;;;;18.65;11.18;;;9.50;99.90;;;;;;5034292;28;20037;-48
2022/05/05 06:22:46;;;;;;;20.25;11.85;;;9.60;99.90;;;;;;5034519;28;20084;-52
2022/05/05 06:25:12;;;;;;;21.75;11.63;;;9.70;99.90;;;;;;5043313;28;20045;-49
2022/05/05 06:27:38;;;;;;;21.00;12.20;;;9.70;99.90;;;;;;5041310;28;20120;-47
2022/05/05 06:30:06;;;;;;;23.90;12.80;;;9.80;99.90;;;;;;5033195;28;20632;-49
2022/05/05 06:32:32;;;;;;;23.55;11.50;;;9.90;99.90;;;;;;5033374;28;20468;-50
2022/05/05 06:34:58;;;;;;;21.85;12.20;;;10.00;99.90;;;;;;5032249;28;20099;-51
2022/05/05 06:37:24;;;;;;;21.33;11.32;;;10.00;99.90;;;;;;5031597;28;20025;-48
2022/05/05 06:39:50;;;;;;;19.30;11.80;;;10.10;99.90;;;;;;5038061;28;20025;-50
2022/05/05 06:42:17;;;;;;;20.20;11.95;;;10.20;99.90;;;;;;5037463;28;20146;-48
2022/05/05 06:44:42;;;;;;;18.92;11.25;;;10.30;99.90;;;;;;5032437;28;20059;-49
2022/05/05 06:47:08;;;;;;;24.00;12.23;;;10.40;99.90;;;;;;5031026;28;20061;-51
2022/05/05 06:49:34;;;;;;;18.83;11.15;;;10.50;99.90;;;;;;5034460;28;20048;-51
2022/05/05 06:52:01;;;;;;;21.05;11.63;;;10.60;99.90;;;;;;5037714;28;20048;-47
2022/05/05 06:54:27;;;;;;;24.15;11.73;;;10.70;99.90;;;;;;5039843;28;20104;-48
2022/05/05 06:56:54;;;;;;;20.90;10.50;;;10.70;99.90;;;;;;5032812;28;20437;-46
2022/05/05 06:59:19;;;;;;;20.15;10.73;;;10.80;99.90;;;;;;5030739;28;20044;-50
2022/05/05 07:01:54;;;;;;;22.42;10.23;;;10.90;99.90;;;;;;5034638;28;20034;-51
2022/05/05 07:07:06;;;;;;;19.83;9.85;;;11.00;99.90;;;;;;5034177;28;20080;-49
2022/05/05 07:12:17;;;;;;;17.23;9.43;;;11.30;99.90;;;;;;5029785;28;20040;-49
2022/05/05 07:14:46;;;;;;;17.23;9.55;;;11.40;99.90;;;;;;5034704;28;20029;-50
2022/05/05 07:17:12;;;;;;;22.60;9.82;;;11.40;99.90;;;;;;5034311;28;20037;-51
2022/05/05 07:19:39;;;;;;;19.75;9.63;;;11.50;99.90;;;;;;5037933;28;20126;-48
2022/05/05 07:22:05;;;;;;;20.00;9.68;;;11.70;99.90;;;;;;5033902;28;20117;-48
2022/05/05 07:24:31;;;;;;;19.35;9.35;;;11.70;99.90;;;;;;5033268;28;20408;-49
2022/05/05 07:26:58;;;;;;;17.35;8.68;;;11.80;99.90;;;;;;5033495;28;20037;-48
2022/05/05 07:29:24;;;;;;;20.30;9.02;;;11.80;99.90;;;;;;5035346;28;20508;-51
2022/05/05 07:31:49;;;;;;;16.85;9.93;;;11.90;99.90;;;;;;5033496;28;20041;-47
2022/05/05 07:34:15;;;;;;;16.20;9.00;;;11.90;99.90;;;;;;5029221;28;20033;-49
2022/05/05 07:36:42;;;;;;;16.58;8.75;;;12.10;99.90;;;;;;5032410;28;20064;-50
2022/05/05 07:39:08;;;;;;;20.15;9.18;;;12.10;99.90;;;;;;5037137;28;20092;-51
2022/05/05 07:41:34;;;;;;;15.45;9.98;;;12.20;99.90;;;;;;5033624;28;20087;-49
2022/05/05 07:44:01;;;;;;;16.67;8.88;;;12.30;99.90;;;;;;5036281;28;20045;-50
2022/05/05 07:46:27;;;;;;;16.63;9.38;;;12.30;99.90;;;;;;5033454;28;20067;-52
2022/05/05 07:48:54;;;;;;;19.85;9.35;;;12.40;99.90;;;;;;5035443;28;20033;-50
2022/05/05 07:51:19;;;;;;;20.13;9.90;;;12.40;99.90;;;;;;5033999;28;20080;-47
2022/05/05 07:54:34;;;;;;;19.17;9.13;;;12.50;99.90;;;;;;5033993;28;20069;-51
2022/05/05 07:56:34;;;;;;;20.30;8.70;;;12.60;99.90;;;;;;5035119;28;20029;-48
2022/05/05 07:59:00;;;;;;;17.08;9.10;;;12.80;99.90;;;;;;5034624;28;20094;-51
2022/05/05 08:01:26;;;;;;;13.75;9.18;;;12.80;99.90;;;;;;5034681;28;20492;-53
2022/05/05 08:03:52;;;;;;;15.57;8.77;;;12.90;99.90;;;;;;5035781;28;20045;-49
2022/05/05 08:06:18;;;;;;;21.15;9.07;;;12.90;99.90;;;;;;5033434;28;20510;-50
2022/05/05 08:08:44;;;;;;;15.82;7.88;;;12.90;99.90;;;;;;5036676;28;20045;-50
2022/05/05 08:11:10;;;;;;;14.20;8.18;;;13.00;99.90;;;;;;5034518;28;20485;-50
2022/05/05 08:13:35;;;;;;;18.70;8.57;;;13.00;99.90;;;;;;5036011;28;20033;-51
2022/05/05 08:16:01;;;;;;;16.08;8.80;;;13.00;99.90;;;;;;5031959;28;20049;-53
2022/05/05 08:18:27;;;;;;;12.02;7.70;;;13.20;99.90;;;;;;5033830;28;20040;-51
2022/05/05 08:20:53;;;;;;;14.27;8.02;;;13.10;99.90;;;;;;5034893;28;20432;-51
2022/05/05 08:23:19;;;;;;;16.63;7.97;;;13.20;99.90;;;;;;5034489;28;20091;-51
2022/05/05 08:28:29;;;;;;;16.10;8.07;;;13.50;99.90;;;;;;5034338;28;20037;-53
2022/05/05 08:30:58;;;;;;;15.55;8.65;;;13.60;99.90;;;;;;5032160;28;20048;-49
2022/05/05 08:33:27;;;;;;;14.30;8.32;;;13.60;99.90;;;;;;5032336;28;20037;-50
2022/05/05 08:35:54;;;;;;;16.95;8.13;;;13.70;99.90;;;;;;5030709;28;20049;-49
2022/05/05 08:38:20;;;;;;;17.98;8.32;;;13.70;99.90;;;;;;5039288;28;20045;-51
2022/05/05 08:40:45;;;;;;;13.02;8.40;;;14.10;99.90;;;;;;5034168;28;20043;-49
2022/05/05 08:43:11;;;;;;;16.52;8.25;;;14.40;99.90;;;;;;5034302;28;20507;-51
2022/05/05 08:45:38;;;;;;;14.18;7.07;;;14.40;99.90;;;;;;5034459;28;20044;-49
2022/05/05 08:48:07;;;;;;;16.00;7.95;;;14.60;99.90;;;;;;5030715;28;20044;-49
2022/05/05 08:50:35;;;;;;;15.40;8.05;;;14.70;99.90;;;;;;5037212;28;20087;-51
2022/05/05 08:53:03;;;;;;;11.90;7.68;;;14.70;99.90;;;;;;5048539;28;20135;-51
2022/05/05 08:55:34;;;;;;;18.65;7.32;;;14.80;99.90;;;;;;5030011;28;20045;-52
2022/05/05 08:58:01;;;;;;;15.50;8.48;;;14.80;99.90;;;;;;5029083;28;20064;-49
2022/05/05 09:00:27;;;;;;;16.45;7.20;;;14.80;99.90;;;;;;5029347;28;20162;-49
2022/05/05 09:02:58;;;;;;;14.23;7.15;;;14.80;99.90;;;;;;5030787;28;20044;-50
2022/05/05 09:05:42;;;;;;;13.95;7.32;;;14.90;99.90;;;;;;5029771;28;20052;-52
2022/05/05 09:08:13;;;;;;;14.48;7.70;;;15.10;99.90;;;;;;5031675;28;20036;-46
2022/05/05 09:10:44;;;;;;;12.27;6.97;;;15.20;99.90;;;;;;5031199;28;20088;-46
2022/05/05 09:13:10;;;;;;;13.18;7.80;;;15.50;99.90;;;;;;5032388;28;20388;-47
2022/05/05 09:15:40;;;;;;;14.82;7.13;;;15.70;99.90;;;;;;5030160;28;20064;-51
2022/05/05 09:18:33;;;;;;;14.27;7.18;;;15.90;99.90;;;;;;5031456;28;20029;-51
2022/05/05 09:21:03;;;;;;;12.65;7.10;;;15.90;99.90;;;;;;5029294;28;20072;-49
2022/05/05 09:23:29;;;;;;;13.75;6.97;;;16.10;99.90;;;;;;5026522;28;20033;-51
2022/05/05 09:25:55;;;;;;;12.85;6.93;;;16.00;99.90;;;;;;5027238;28;20132;-51
2022/05/05 09:28:23;;;;;;;15.15;6.78;;;15.70;99.90;;;;;;5030095;28;20523;-48
2022/05/05 09:30:50;;;;;;;11.43;6.82;;;16.00;99.90;;;;;;5033914;28;20049;-51
2022/05/05 09:33:37;;;;;;;13.27;7.03;;;16.10;99.90;;;;;;5030054;28;20061;-50
2022/05/05 09:36:11;;;;;;;11.98;7.13;;;16.10;99.90;;;;;;5031752;28;20165;-48
2022/05/05 09:38:55;;;;;;;;;;;16.10;99.90;;;;;;5030971;28;20072;-49
2022/05/05 09:41:26;;;;;;;13.35;6.68;;;16.20;99.90;;;;;;5030999;28;19912;-51
2022/05/05 09:43:56;;;;;;;11.50;6.80;;;16.60;99.90;;;;;;5031166;28;20112;-50
2022/05/05 09:46:25;;;;;;;13.52;7.30;;;16.40;99.90;;;;;;5030999;28;20033;-51
2022/05/05 09:49:09;;;;;;;11.32;6.82;;;16.50;99.90;;;;;;5031639;28;20030;-51
2022/05/05 09:51:38;;;;;;;12.55;7.10;;;16.80;99.90;;;;;;5030450;28;20106;-50
2022/05/05 09:59:40;;;;;;;10.00;6.45;;;17.20;99.90;;;;;;5027443;28;20040;-52
2022/05/05 10:04:00;;;;;;;10.15;6.68;;;17.10;99.90;;;;;;5029223;28;20116;-50
2022/05/05 10:05:15;;;;;;;11.85;6.97;;;17.20;99.90;;;;;;5029337;28;20508;-52
2022/05/05 10:07:44;;;;;;;10.02;6.80;;;17.20;99.90;;;;;;5030456;28;20147;-48
2022/05/05 10:10:13;;;;;;;14.05;7.47;;;17.10;99.90;;;;;;5028641;28;21859;-47
2022/05/05 10:12:40;;;;;;;11.93;7.45;;;17.30;99.90;;;;;;5030353;28;20033;-51
2022/05/05 10:15:07;;;;;;;11.32;6.65;;;17.30;99.90;;;;;;5027371;28;20380;-48
2022/05/05 10:17:35;;;;;;;11.85;7.43;;;17.40;99.90;;;;;;5028064;28;20048;-51
2022/05/05 10:20:02;;;;;;;11.68;7.22;;;17.20;99.90;;;;;;5026281;28;20068;-52
2022/05/05 10:23:01;;;;;;;11.43;7.22;;;17.20;99.90;;;;;;5028497;28;20041;-49
2022/05/05 10:25:27;;;;;;;11.55;7.35;;;17.30;99.90;;;;;;5027608;28;20492;-49
2022/05/05 10:27:55;;;;;;;12.30;7.30;;;17.40;99.90;;;;;;5043536;28;20057;-51
2022/05/05 10:30:34;;;;;;;14.55;7.70;;;17.50;99.90;;;;;;5026489;28;20121;-52
2022/05/05 10:33:01;;;;;;;12.98;7.68;;;17.70;99.90;;;;;;5028974;28;20511;-51
2022/05/05 10:35:36;;;;;;;14.13;7.20;;;17.60;99.90;;;;;;5029024;28;20073;-49
2022/05/05 10:38:02;;;;;;;11.88;6.53;;;17.60;99.90;;;;;;5029736;28;20118;-51
2022/05/05 10:40:43;;;;;;;13.15;7.38;;;17.90;99.90;;;;;;5032412;28;20057;-52
2022/05/05 10:43:09;;;;;;;12.05;7.45;;;17.70;99.90;;;;;;5032479;28;20091;-53
2022/05/05 10:45:35;;;;;;;11.68;7.15;;;18.00;99.90;;;;;;5026702;28;20060;-49
2022/05/05 10:48:04;;;;;;;11.77;7.50;;;18.00;99.80;;;;;;5030162;28;20026;-48
2022/05/05 10:50:39;;;;;;;12.85;7.50;;;18.20;99.80;;;;;;5026541;28;20057;-50
2022/05/05 10:53:06;;;;;;;11.68;6.40;;;18.30;99.90;;;;;;5033398;28;20742;-47
2022/05/05 10:55:45;;;;;;;12.27;6.68;;;18.20;99.10;;;;;;5030975;28;20072;-52
2022/05/05 10:58:12;;;;;;;12.07;6.40;;;18.20;98.20;;;;;;5034171;28;20069;-52
2022/05/05 11:00:43;;;;;;;11.80;7.38;;;18.50;99.80;;;;;;5033740;28;20048;-49
2022/05/05 11:03:09;;;;;;;11.90;7.38;;;18.60;98.60;;;;;;5032757;28;20060;-49
2022/05/05 11:05:41;;;;;;;13.45;7.25;;;19.00;99.20;;;;;;5035158;28;20128;-49
2022/05/05 11:08:08;;;;;;;11.05;6.68;;;18.80;98.90;;;;;;5034763;28;20095;-49
2022/05/05 11:13:46;;;;;;;11.15;6.82;;;19.20;99.00;;;;;;5035918;28;20082;-47
2022/05/05 11:22:25;;;;;;;14.00;7.10;;;19.30;96.90;;;;;;5031347;28;21416;-46
2022/05/05 11:24:52;;;;;;;12.60;7.40;;;19.20;97.50;;;;;;5032679;28;20797;-50
2022/05/05 11:27:20;;;;;;;13.07;7.25;;;19.50;97.90;;;;;;5036064;28;20040;-50
2022/05/05 11:29:57;;;;;;;11.52;6.80;;;19.40;97.60;;;;;;5039073;28;20037;-49
2022/05/05 11:32:32;;;;;;;13.40;6.60;;;19.20;96.60;;;;;;5030760;28;20091;-49
2022/05/05 11:34:59;;;;;;;11.90;6.95;;;19.40;97.20;;;;;;5034232;28;20053;-49
2022/05/05 11:37:28;;;;;;;11.10;7.45;;;19.20;98.00;;;;;;5034367;28;20033;-50
2022/05/05 11:39:54;;;;;;;15.63;7.20;;;19.40;97.60;;;;;;5034533;28;20033;-51
2022/05/05 11:42:20;;;;;;;11.43;6.22;;;19.10;96.30;;;;;;5034654;28;20488;-51
2022/05/05 11:44:46;;;;;;;12.63;6.95;;;19.60;96.90;;;;;;5034428;28;20033;-47
2022/05/05 11:47:15;;;;;;;10.10;6.40;;;19.50;97.00;;;;;;5030737;28;20042;-49
2022/05/05 11:49:48;;;;;;;11.38;6.88;;;19.60;97.00;;;;;;5027609;28;20042;-50
2022/05/05 11:52:22;;;;;;;12.90;6.80;;;19.80;97.60;;;;;;5033928;28;20042;-52
2022/05/05 11:54:55;;;;;;;10.32;6.78;;;19.70;95.90;;;;;;5032087;28;20090;-50
2022/05/05 11:57:38;;;;;;;11.10;6.13;;;19.90;96.00;;;;;;5028352;28;20124;-53
2022/05/05 12:02:53;;;;;;;12.00;6.43;;;19.80;94.70;;;;;;5032718;28;20076;-51
2022/05/05 12:05:24;;;;;;;9.43;6.22;;;19.70;94.20;;;;;;5034302;28;20037;-51
2022/05/05 12:07:50;;;;;;;10.93;6.75;;;19.80;94.90;;;;;;5029972;28;20523;-53
2022/05/05 12:10:17;;;;;;;10.40;6.55;;;20.10;94.30;;;;;;5032324;28;20029;-52
2022/05/05 12:12:50;;;;;;;9.35;5.90;;;20.20;94.80;;;;;;5029536;28;20438;-49
2022/05/05 12:15:18;;;;;;;9.93;5.57;;;20.10;94.10;;;;;;5031178;28;20044;-52
2022/05/05 12:17:50;;;;;;;10.20;6.15;;;20.20;93.90;;;;;;5032657;28;20402;-51
2022/05/05 12:20:19;;;;;;;7.93;5.05;;;20.40;93.00;;;;;;5032973;28;20499;-52
2022/05/05 12:22:54;;;;;;;8.65;5.63;;;20.50;93.20;;;;;;5034123;28;20656;-51
2022/05/05 12:25:21;;;;;;;9.55;4.90;;;20.60;93.80;;;;;;5027200;28;20045;-49
2022/05/05 12:28:03;;;;;;;8.13;5.38;;;20.80;93.10;;;;;;5033877;28;20044;-51
2022/05/05 12:30:39;;;;;;;10.32;5.30;;;20.80;91.80;;;;;;5038848;28;20046;-49
2022/05/05 12:33:07;;;;;;;7.78;4.75;;;20.90;90.80;;;;;;5039385;28;20071;-47
2022/05/05 12:35:38;;;;;;;7.18;4.47;;;21.00;90.90;;;;;;5043293;28;20045;-51
2022/05/05 12:38:06;;;;;;;6.90;3.80;;;20.90;88.30;;;;;;5032317;28;20041;-50
2022/05/05 12:40:33;;;;;;;7.15;4.35;;;20.80;90.50;;;;;;5030887;28;20504;-52
2022/05/05 12:43:01;;;;;;;7.15;4.43;;;20.80;89.30;;;;;;5031080;28;20068;-50
2022/05/05 12:45:30;;;;;;;7.43;4.40;;;21.20;90.20;;;;;;5031582;28;20126;-49
2022/05/05 12:47:58;;;;;;;6.60;4.13;;;21.60;89.40;;;;;;5031830;28;20033;-49
2022/05/05 12:50:46;;;;;;;7.05;5.00;;;21.80;88.00;;;;;;5032100;28;20042;-49
2022/05/05 13:01:41;;;;;;;8.38;4.22;;;21.60;83.10;;;;;;5050074;28;20037;-52
2022/05/05 13:04:14;;;;;;;9.23;4.80;;;21.70;83.10;;;;;;5052062;28;20045;-52
2022/05/05 13:06:41;;;;;;;7.53;4.53;;;21.80;82.30;;;;;;5050524;28;20369;-50
2022/05/05 13:09:09;;;;;;;6.40;3.97;;;22.50;86.90;;;;;;5051850;28;20363;-48
2022/05/05 13:11:46;;;;;;;8.20;4.88;;;22.80;85.00;;;;;;5051891;28;20573;-49
2022/05/05 13:14:12;;;;;;;7.63;4.72;;;22.30;81.80;;;;;;5051885;28;20552;-49
2022/05/05 13:16:38;;;;;;;7.22;4.45;;;22.30;79.50;;;;;;5051478;28;20048;-49
2022/05/05 13:19:05;;;;;;;8.57;4.20;;;22.30;80.80;;;;;;5050909;28;20037;-52
2022/05/05 13:21:36;;;;;;;7.25;4.30;;;22.40;78.10;;;;;;5051508;28;20037;-51
2022/05/05 13:24:02;;;;;;;8.65;4.50;;;22.70;77.60;;;;;;5051679;28;20044;-51
2022/05/05 13:26:28;;;;;;;6.82;3.90;;;22.80;78.70;;;;;;5051243;28;20048;-53
2022/05/05 13:28:55;;;;;;;9.65;5.20;;;23.00;78.60;;;;;;5051595;28;20063;-52
2022/05/05 13:31:21;;;;;;;8.02;4.93;;;22.80;76.60;;;;;;5051016;28;20484;-51
2022/05/05 13:33:47;;;;;;;7.30;4.03;;;22.60;74.60;;;;;;5051579;28;20112;-52